createdAt,value
2023-02-19T00:00:43.381Z,98653.88
2023-02-19T00:02:52.594Z,98657.50
2023-02-19T00:04:59.829Z,98651.63
2023-02-19T00:07:04.773Z,98657.00
2023-02-19T00:09:09.528Z,98648.59
2023-02-19T00:11:15.838Z,98657.31
2023-02-19T00:13:22.894Z,98659.81
2023-02-19T00:15:27.907Z,98668.34
2023-02-19T00:17:34.381Z,98666.59
2023-02-19T00:19:41.717Z,98662.00
2023-02-19T00:21:46.732Z,98653.50
2023-02-19T00:23:54.956Z,98650.53
2023-02-19T00:26:12.320Z,98654.78
2023-02-19T00:28:23.391Z,98653.88
2023-02-19T00:30:28.253Z,98662.00
2023-02-19T00:32:33.049Z,98664.63
2023-02-19T00:34:41.846Z,98661.63
2023-02-19T00:36:46.877Z,98663.28
2023-02-19T00:38:52.044Z,98668.69
2023-02-19T00:40:56.645Z,98658.19
2023-02-19T00:43:01.382Z,98663.28
2023-02-19T00:45:06.463Z,98660.88
2023-02-19T00:47:11.671Z,98663.59
2023-02-19T00:49:20.904Z,98654.09
2023-02-19T00:51:30.204Z,98659.03
2023-02-19T00:53:34.950Z,98651.91
2023-02-19T00:55:40.103Z,98659.50
2023-02-19T00:57:44.881Z,98650.88
2023-02-19T00:59:49.715Z,98649.00
2023-02-19T01:01:56.285Z,98640.91
2023-02-19T01:04:01.181Z,98636.34
2023-02-19T01:06:07.072Z,98637.16
2023-02-19T01:08:14.637Z,98633.53
2023-02-19T01:10:19.574Z,98626.50
2023-02-19T01:12:25.850Z,98623.41
2023-02-19T01:14:30.950Z,98617.59
2023-02-19T01:16:35.799Z,98628.25
2023-02-19T01:18:40.681Z,98622.16
2023-02-19T01:20:47.122Z,98623.13
2023-02-19T01:22:52.420Z,98627.50
2023-02-19T01:24:59.786Z,98625.09
2023-02-19T01:27:04.835Z,98637.47
2023-02-19T01:29:09.725Z,98625.53
2023-02-19T01:31:17.863Z,98617.44
2023-02-19T01:33:22.889Z,98613.78
2023-02-19T01:35:27.649Z,98606.84
2023-02-19T01:37:32.450Z,98606.19
2023-02-19T01:39:37.372Z,98594.81
2023-02-19T01:41:45.043Z,98596.53
2023-02-19T01:44:01.894Z,98595.69
2023-02-19T01:46:06.964Z,98592.31
2023-02-19T01:48:16.205Z,98593.38
2023-02-19T01:50:21.180Z,98592.59
2023-02-19T01:52:29.209Z,98590.81
2023-02-19T01:54:37.659Z,98570.75
2023-02-19T01:56:48.281Z,98575.22
2023-02-19T01:58:54.961Z,98579.91
2023-02-19T02:00:59.984Z,98579.88
2023-02-19T02:03:05.005Z,98583.41
2023-02-19T02:05:14.352Z,98581.00
2023-02-19T02:07:33.083Z,98581.78
2023-02-19T02:09:50.363Z,98595.81
2023-02-19T02:11:58.035Z,98584.69
2023-02-19T02:14:03.122Z,98594.00
2023-02-19T02:16:20.953Z,98601.06
2023-02-19T02:18:34.373Z,98583.81
2023-02-19T02:20:54.115Z,98577.69
2023-02-19T02:23:03.963Z,98583.69
2023-02-19T02:25:38.226Z,98568.03
2023-02-19T02:27:56.312Z,98563.75
2023-02-19T02:30:20.725Z,98562.16
2023-02-19T02:32:33.840Z,98566.47
2023-02-19T02:34:48.919Z,98568.34
2023-02-19T02:36:58.000Z,98558.59
2023-02-19T02:39:05.331Z,98560.31
2023-02-19T02:41:15.516Z,98563.66
2023-02-19T02:43:20.569Z,98562.13
2023-02-19T02:45:37.779Z,98561.06
2023-02-19T02:47:54.649Z,98551.59
2023-02-19T02:50:07.794Z,98558.41
2023-02-19T02:52:37.951Z,98546.09
2023-02-19T02:54:55.351Z,98536.44
2023-02-19T02:57:02.552Z,98543.22
2023-02-19T02:59:17.639Z,98534.69
2023-02-19T03:01:41.065Z,98527.06
2023-02-19T03:03:48.879Z,98519.84
2023-02-19T03:05:55.089Z,98527.63
2023-02-19T03:08:07.706Z,98535.59
2023-02-19T03:10:16.323Z,98523.34
2023-02-19T03:12:35.604Z,98510.88
2023-02-19T03:14:58.641Z,98521.06
2023-02-19T03:17:23.866Z,98518.69
2023-02-19T03:19:31.728Z,98522.16
2023-02-19T03:21:38.873Z,98517.00
2023-02-19T03:24:00.788Z,98506.84
2023-02-19T03:26:08.246Z,98515.06
2023-02-19T03:28:46.483Z,98528.25
2023-02-19T03:30:56.678Z,98532.50
2023-02-19T03:33:08.916Z,98524.16
2023-02-19T03:35:19.585Z,98516.09
2023-02-19T03:37:31.137Z,98518.75
2023-02-19T03:39:44.456Z,98516.94
2023-02-19T03:42:01.607Z,98521.91
2023-02-19T03:44:13.103Z,98511.41
2023-02-19T03:46:25.854Z,98508.00
2023-02-19T03:48:37.666Z,98504.66
2023-02-19T03:50:52.294Z,98500.31
2023-02-19T03:53:08.927Z,98506.56
2023-02-19T03:55:19.516Z,98497.03
2023-02-19T03:57:34.182Z,98492.72
2023-02-19T03:59:45.354Z,98503.19
2023-02-19T04:01:58.566Z,98491.16
2023-02-19T04:04:11.976Z,98494.69
2023-02-19T04:06:20.932Z,98503.38
2023-02-19T04:08:29.091Z,98513.94
2023-02-19T04:10:42.588Z,98517.53
2023-02-19T04:12:51.348Z,98521.91
2023-02-19T04:15:01.087Z,98514.13
2023-02-19T04:17:09.424Z,98509.56
2023-02-19T04:19:21.315Z,98533.00
2023-02-19T04:21:27.012Z,98531.16
2023-02-19T04:23:36.728Z,98534.59
2023-02-19T04:25:45.144Z,98535.50
2023-02-19T04:27:50.333Z,98525.13
2023-02-19T04:29:55.144Z,98518.56
2023-02-19T04:31:59.952Z,98513.50
2023-02-19T04:34:05.043Z,98527.94
2023-02-19T04:36:13.942Z,98526.09
2023-02-19T04:38:18.733Z,98520.25
2023-02-19T04:40:23.558Z,98510.75
2023-02-19T04:42:28.337Z,98515.75
2023-02-19T04:44:36.565Z,98503.81
2023-02-19T04:46:43.191Z,98514.13
2023-02-19T04:48:48.013Z,98528.13
2023-02-19T04:50:52.930Z,98529.03
2023-02-19T04:53:01.550Z,98533.63
2023-02-19T04:55:06.324Z,98536.06
2023-02-19T04:57:11.200Z,98550.75
2023-02-19T04:59:16.264Z,98534.56
2023-02-19T05:01:21.219Z,98536.34
2023-02-19T05:03:26.128Z,98534.75
2023-02-19T05:05:30.971Z,98525.22
2023-02-19T05:07:36.536Z,98532.72
2023-02-19T05:09:44.270Z,98529.16
2023-02-19T05:11:49.005Z,98530.91
2023-02-19T05:13:53.827Z,98525.13
2023-02-19T05:16:01.029Z,98536.34
2023-02-19T05:18:05.896Z,98518.78
2023-02-19T05:20:12.060Z,98518.78
2023-02-19T05:22:16.854Z,98505.84
2023-02-19T05:24:21.789Z,98515.25
2023-02-19T05:26:31.252Z,98516.00
2023-02-19T05:28:36.050Z,98500.47
2023-02-19T05:30:40.849Z,98500.38
2023-02-19T05:32:45.689Z,98501.13
2023-02-19T05:34:50.516Z,98519.09
2023-02-19T05:36:55.340Z,98503.66
2023-02-19T05:39:01.242Z,98506.06
2023-02-19T05:41:13.695Z,98510.47
2023-02-19T05:43:21.105Z,98508.00
2023-02-19T05:45:25.918Z,98509.63
2023-02-19T05:47:30.723Z,98511.41
2023-02-19T05:49:35.538Z,98517.34
2023-02-19T05:51:40.309Z,98526.16
2023-02-19T05:53:46.503Z,98525.97
2023-02-19T05:55:51.235Z,98531.94
2023-02-19T05:57:56.051Z,98534.72
2023-02-19T06:00:03.529Z,98527.13
2023-02-19T06:02:16.978Z,98527.22
2023-02-19T06:04:22.264Z,98540.28
2023-02-19T06:06:28.157Z,98545.38
2023-02-19T06:08:32.961Z,98547.22
2023-02-19T06:10:38.570Z,98554.22
2023-02-19T06:12:43.433Z,98554.28
2023-02-19T06:14:48.251Z,98560.13
2023-02-19T06:16:55.572Z,98565.28
2023-02-19T06:19:00.389Z,98560.53
2023-02-19T06:21:05.865Z,98559.81
2023-02-19T06:23:10.671Z,98557.06
2023-02-19T06:25:15.555Z,98563.53
2023-02-19T06:27:20.387Z,98563.47
2023-02-19T06:29:25.116Z,98556.31
2023-02-19T06:31:30.097Z,98564.16
2023-02-19T06:33:38.428Z,98561.50
2023-02-19T06:35:43.201Z,98558.09
2023-02-19T06:37:49.613Z,98565.03
2023-02-19T06:39:55.496Z,98566.84
2023-02-19T06:42:00.829Z,98569.34
2023-02-19T06:44:05.741Z,98571.78
2023-02-19T06:46:11.040Z,98571.69
2023-02-19T06:48:15.908Z,98574.38
2023-02-19T06:50:23.319Z,98576.84
2023-02-19T06:52:28.349Z,98584.88
2023-02-19T06:54:33.537Z,98581.25
2023-02-19T06:56:40.497Z,98588.00
2023-02-19T06:58:45.278Z,98587.97
2023-02-19T07:00:50.188Z,98589.69
2023-02-19T07:02:56.741Z,98595.97
2023-02-19T07:05:01.514Z,98590.81
2023-02-19T07:07:08.891Z,98583.19
2023-02-19T07:09:14.579Z,98597.22
2023-02-19T07:11:20.133Z,98601.47
2023-02-19T07:13:25.366Z,98603.06
2023-02-19T07:15:30.001Z,98598.03
2023-02-19T07:17:34.742Z,98604.81
2023-02-19T07:19:39.546Z,98596.78
2023-02-19T07:21:45.034Z,98591.69
2023-02-19T07:23:52.456Z,98602.03
2023-02-19T07:25:57.982Z,98604.59
2023-02-19T07:28:02.931Z,98608.91
2023-02-19T07:30:08.324Z,98602.03
2023-02-19T07:32:13.174Z,98613.25
2023-02-19T07:34:18.012Z,98618.44
2023-02-19T07:36:24.400Z,98599.31
2023-02-19T07:38:30.244Z,98605.16
2023-02-19T07:40:37.872Z,98612.09
2023-02-19T07:42:42.699Z,98617.28
2023-02-19T07:44:47.517Z,98612.28
2023-02-19T07:46:52.360Z,98624.16
2023-02-19T07:48:57.574Z,98617.28
2023-02-19T07:51:02.862Z,98615.56
2023-02-19T07:53:07.931Z,98612.00
2023-02-19T07:55:12.733Z,98612.88
2023-02-19T07:57:20.156Z,98605.69
2023-02-19T07:59:25.039Z,98606.63
2023-02-19T08:01:42.047Z,98615.22
2023-02-19T08:03:48.875Z,98623.69
2023-02-19T08:05:55.133Z,98617.59
2023-02-19T08:08:00.592Z,98623.41
2023-02-19T08:10:19.791Z,98621.69
2023-02-19T08:12:39.770Z,98620.00
2023-02-19T08:14:44.590Z,98631.25
2023-02-19T08:16:53.156Z,98620.81
2023-02-19T08:18:58.350Z,98622.41
2023-02-19T08:21:06.751Z,98627.50
2023-02-19T08:23:11.905Z,98618.59
2023-02-19T08:25:19.289Z,98623.78
2023-02-19T08:27:24.062Z,98631.34
2023-02-19T08:29:31.509Z,98629.34
2023-02-19T08:31:37.712Z,98646.13
2023-02-19T08:33:43.287Z,98645.28
2023-02-19T08:35:48.450Z,98643.81
2023-02-19T08:37:58.543Z,98653.06
2023-02-19T08:40:03.366Z,98657.50
2023-02-19T08:42:08.502Z,98657.44
2023-02-19T08:44:13.007Z,98663.44
2023-02-19T08:46:20.530Z,98666.28
2023-02-19T08:48:25.387Z,98662.88
2023-02-19T08:50:30.325Z,98666.38
2023-02-19T08:52:35.450Z,98686.97
2023-02-19T08:54:40.206Z,98684.34
2023-02-19T08:56:45.051Z,98676.44
2023-02-19T08:58:49.892Z,98680.53
2023-02-19T09:00:57.592Z,98680.59
2023-02-19T09:03:05.054Z,98677.44
2023-02-19T09:05:10.881Z,98674.63
2023-02-19T09:07:16.093Z,98677.00
2023-02-19T09:09:21.001Z,98683.72
2023-02-19T09:11:25.794Z,98674.09
2023-02-19T09:13:30.636Z,98693.41
2023-02-19T09:15:35.742Z,98689.91
2023-02-19T09:17:40.574Z,98714.00
2023-02-19T09:19:50.555Z,98701.81
2023-02-19T09:21:55.660Z,98705.91
2023-02-19T09:24:00.408Z,98700.88
2023-02-19T09:26:09.408Z,98704.88
2023-02-19T09:28:14.238Z,98715.25
2023-02-19T09:30:19.162Z,98709.50
2023-02-19T09:32:24.379Z,98713.09
2023-02-19T09:34:30.398Z,98713.88
2023-02-19T09:36:38.378Z,98721.72
2023-02-19T09:38:43.480Z,98729.09
2023-02-19T09:40:48.411Z,98720.69
2023-02-19T09:42:56.232Z,98719.53
2023-02-19T09:45:03.646Z,98722.03
2023-02-19T09:47:15.648Z,98725.78
2023-02-19T09:49:26.071Z,98716.38
2023-02-19T09:51:32.495Z,98725.75
2023-02-19T09:53:45.177Z,98739.72
2023-02-19T09:55:50.297Z,98719.28
2023-02-19T09:57:56.309Z,98734.78
2023-02-19T10:00:10.307Z,98733.88
2023-02-19T10:02:18.815Z,98739.03
2023-02-19T10:04:23.733Z,98740.88
2023-02-19T10:06:30.738Z,98746.13
2023-02-19T10:08:40.199Z,98746.34
2023-02-19T10:10:47.177Z,98734.28
2023-02-19T10:12:56.774Z,98742.28
2023-02-19T10:15:10.030Z,98739.00
2023-02-19T10:17:25.302Z,98749.28
2023-02-19T10:19:30.191Z,98744.84
2023-02-19T10:21:35.004Z,98745.06
2023-02-19T10:23:44.063Z,98751.16
2023-02-19T10:25:52.214Z,98752.09
2023-02-19T10:27:57.701Z,98750.44
2023-02-19T10:30:03.133Z,98760.03
2023-02-19T10:32:23.201Z,98748.78
2023-02-19T10:34:28.109Z,98754.91
2023-02-19T10:36:35.851Z,98744.81
2023-02-19T10:38:50.059Z,98749.38
2023-02-19T10:41:03.553Z,98736.19
2023-02-19T10:43:08.738Z,98749.84
2023-02-19T10:45:19.870Z,98748.97
2023-02-19T10:47:28.404Z,98762.38
2023-02-19T10:49:38.781Z,98773.53
2023-02-19T10:51:44.480Z,98765.94
2023-02-19T10:53:56.042Z,98769.88
2023-02-19T10:56:10.206Z,98761.22
2023-02-19T10:58:28.654Z,98766.50
2023-02-19T11:00:33.796Z,98771.25
2023-02-19T11:02:38.606Z,98767.94
2023-02-19T11:04:45.470Z,98772.25
2023-02-19T11:06:50.815Z,98772.44
2023-02-19T11:09:01.653Z,98784.66
2023-02-19T11:11:06.473Z,98809.84
2023-02-19T11:13:19.619Z,98804.03
2023-02-19T11:15:28.018Z,98814.69
2023-02-19T11:17:33.771Z,98813.41
2023-02-19T11:19:41.760Z,98819.44
2023-02-19T11:21:46.665Z,98821.25
2023-02-19T11:23:51.635Z,98836.63
2023-02-19T11:26:02.746Z,98853.53
2023-02-19T11:28:11.098Z,98866.53
2023-02-19T11:30:46.420Z,98868.34
2023-02-19T11:32:51.334Z,98865.97
2023-02-19T11:35:17.801Z,98869.50
2023-02-19T11:37:24.155Z,98868.72
2023-02-19T11:39:33.919Z,98876.09
2023-02-19T11:41:59.263Z,98863.91
2023-02-19T11:44:20.591Z,98870.72
2023-02-19T11:46:35.486Z,98868.03
2023-02-19T11:48:59.020Z,98855.03
2023-02-19T11:51:33.842Z,98868.91
2023-02-19T11:53:43.146Z,98864.41
2023-02-19T11:56:05.369Z,98856.44
2023-02-19T11:58:31.056Z,98847.97
2023-02-19T12:00:47.074Z,98857.16
2023-02-19T12:03:20.195Z,98865.69
2023-02-19T12:05:37.266Z,98862.25
2023-02-19T12:08:06.254Z,98868.94
2023-02-19T12:10:17.915Z,98873.03
2023-02-19T12:12:37.795Z,98859.22
2023-02-19T12:15:11.946Z,98864.59
2023-02-19T12:17:27.549Z,98866.50
2023-02-19T12:19:56.353Z,98854.34
2023-02-19T12:22:18.124Z,98865.75
2023-02-19T12:24:47.352Z,98855.47
2023-02-19T12:27:08.354Z,98862.66
2023-02-19T12:29:39.500Z,98859.28
2023-02-19T12:32:04.474Z,98867.09
2023-02-19T12:34:34.508Z,98855.84
2023-02-19T12:36:46.746Z,98858.28
2023-02-19T12:39:00.875Z,98844.25
2023-02-19T12:41:20.762Z,98834.59
2023-02-19T12:43:26.895Z,98847.38
2023-02-19T12:45:39.099Z,98840.22
2023-02-19T12:47:56.837Z,98838.19
2023-02-19T12:50:08.392Z,98837.75
2023-02-19T12:52:18.387Z,98827.03
2023-02-19T12:54:28.353Z,98828.28
2023-02-19T12:56:38.002Z,98811.63
2023-02-19T12:58:47.154Z,98806.31
2023-02-19T13:00:59.074Z,98802.16
2023-02-19T13:03:17.731Z,98801.25
2023-02-19T13:05:29.295Z,98794.25
2023-02-19T13:07:38.869Z,98791.84
2023-02-19T13:09:49.779Z,98800.53
2023-02-19T13:12:02.036Z,98797.06
2023-02-19T13:14:15.900Z,98818.06
2023-02-19T13:16:23.721Z,98814.63
2023-02-19T13:18:38.064Z,98819.03
2023-02-19T13:20:46.695Z,98821.34
2023-02-19T13:23:13.488Z,98828.28
2023-02-19T13:25:21.053Z,98828.53
2023-02-19T13:30:07.619Z,98838.16
2023-02-19T13:32:33.002Z,98839.03
2023-02-19T13:34:58.763Z,98826.78
2023-02-19T13:37:04.940Z,98826.22
2023-02-19T13:39:10.388Z,98820.47
2023-02-19T13:41:30.959Z,98813.41
2023-02-19T13:43:39.002Z,98823.13
2023-02-19T13:45:46.731Z,98825.97
2023-02-19T13:48:01.219Z,98816.31
2023-02-19T13:50:21.381Z,98818.66
2023-02-19T13:52:43.498Z,98838.50
2023-02-19T13:54:48.355Z,98832.47
2023-02-19T13:56:56.431Z,98836.03
2023-02-19T13:59:02.626Z,98838.22
2023-02-19T14:01:09.168Z,98833.22
2023-02-19T14:03:30.653Z,98845.50
2023-02-19T14:06:08.243Z,98836.19
2023-02-19T14:08:15.651Z,98842.84
2023-02-19T14:11:05.194Z,98856.13
2023-02-19T14:13:11.428Z,98855.44
2023-02-19T14:15:43.714Z,98881.59
2023-02-19T14:17:49.066Z,98884.19
2023-02-19T14:20:01.312Z,98873.31
2023-02-19T14:22:41.714Z,98873.50
2023-02-19T14:24:49.330Z,98889.13
2023-02-19T14:26:54.909Z,98882.25
2023-02-19T14:29:00.290Z,98888.59
2023-02-19T14:31:30.703Z,98880.72
2023-02-19T14:33:40.374Z,98890.22
2023-02-19T14:35:47.923Z,98892.00
2023-02-19T14:37:55.089Z,98897.09
2023-02-19T14:40:02.787Z,98900.53
2023-02-19T14:42:10.956Z,98897.66
2023-02-19T14:44:24.978Z,98898.38
2023-02-19T14:46:34.178Z,98895.78
2023-02-19T14:48:43.304Z,98894.09
2023-02-19T14:50:53.090Z,98893.09
2023-02-19T14:53:01.545Z,98900.84
2023-02-19T14:55:12.411Z,98902.66
2023-02-19T14:57:20.596Z,98912.34
2023-02-19T14:59:28.798Z,98907.25
2023-02-19T15:01:33.629Z,98900.31
2023-02-19T15:03:42.110Z,98905.19
2023-02-19T15:05:47.255Z,98892.91
2023-02-19T15:07:53.044Z,98898.69
2023-02-19T15:10:05.061Z,98898.59
2023-02-19T15:12:19.423Z,98895.03
2023-02-19T15:14:28.685Z,98888.72
2023-02-19T15:16:35.793Z,98885.34
2023-02-19T15:18:41.442Z,98877.47
2023-02-19T15:20:46.366Z,98887.13
2023-02-19T15:22:52.292Z,98880.00
2023-02-19T15:24:57.894Z,98878.22
2023-02-19T15:27:03.075Z,98879.81
2023-02-19T15:29:13.806Z,98885.19
2023-02-19T15:31:18.897Z,98890.56
2023-02-19T15:33:23.643Z,98900.25
2023-02-19T15:35:30.513Z,98895.78
2023-02-19T15:37:38.937Z,98885.34
2023-02-19T15:39:48.192Z,98891.44
2023-02-19T15:42:00.455Z,98895.16
2023-02-19T15:44:20.345Z,98906.59
2023-02-19T15:46:28.224Z,98906.91
2023-02-19T15:48:41.017Z,98918.16
2023-02-19T15:50:50.461Z,98903.59
2023-02-19T15:53:04.174Z,98907.16
2023-02-19T15:55:25.419Z,98901.19
2023-02-19T15:57:34.928Z,98906.38
2023-02-19T15:59:46.440Z,98914.44
2023-02-19T16:01:51.431Z,98916.84
2023-02-19T16:04:00.187Z,98918.72
2023-02-19T16:06:10.551Z,98929.88
2023-02-19T16:08:23.760Z,98933.31
2023-02-19T16:10:30.908Z,98935.22
2023-02-19T16:12:35.804Z,98938.75
2023-02-19T16:14:43.243Z,98959.72
2023-02-19T16:16:51.848Z,98956.13
2023-02-19T16:18:56.962Z,98958.69
2023-02-19T16:21:02.270Z,98964.13
2023-02-19T16:23:20.318Z,98964.03
2023-02-19T16:25:32.475Z,98963.19
2023-02-19T16:27:39.806Z,98972.72
2023-02-19T16:29:54.104Z,98975.50
2023-02-19T16:32:00.541Z,98986.13
2023-02-19T16:34:19.759Z,98981.97
2023-02-19T16:36:43.616Z,98977.66
2023-02-19T16:39:18.548Z,98982.09
2023-02-19T16:41:23.657Z,98988.22
2023-02-19T16:43:32.071Z,98983.09
2023-02-19T16:45:39.604Z,98989.28
2023-02-19T16:47:48.549Z,98994.66
2023-02-19T16:49:54.485Z,98987.94
2023-02-19T16:52:04.087Z,98998.31
2023-02-19T16:54:09.210Z,98997.34
2023-02-19T16:56:18.668Z,98998.34
2023-02-19T16:58:24.167Z,99000.16
2023-02-19T17:00:31.513Z,99003.66
2023-02-19T17:02:38.947Z,99007.03
2023-02-19T17:04:43.825Z,99013.91
2023-02-19T17:06:49.971Z,99019.09
2023-02-19T17:08:56.631Z,99018.16
2023-02-19T17:11:02.158Z,99024.97
2023-02-19T17:13:07.097Z,99025.59
2023-02-19T17:15:12.420Z,99030.59
2023-02-19T17:17:16.994Z,99031.59
2023-02-19T17:19:24.516Z,99033.47
2023-02-19T17:21:32.012Z,99037.72
2023-02-19T17:23:36.855Z,99034.38
2023-02-19T17:25:41.626Z,99041.41
2023-02-19T17:27:46.463Z,99046.50
2023-02-19T17:29:51.286Z,99044.75
2023-02-19T17:31:56.202Z,99054.41
2023-02-19T17:34:01.431Z,99066.44
2023-02-19T17:36:09.869Z,99066.53
2023-02-19T17:38:18.090Z,99062.16
2023-02-19T17:40:32.864Z,99064.78
2023-02-19T17:42:38.155Z,99074.38
2023-02-19T17:44:42.965Z,99082.13
2023-02-19T17:46:49.671Z,99083.16
2023-02-19T17:48:55.330Z,99088.16
2023-02-19T17:51:00.175Z,99099.59
2023-02-19T17:53:07.830Z,99107.31
2023-02-19T17:55:15.791Z,99108.16
2023-02-19T17:57:20.596Z,99107.25
2023-02-19T17:59:25.614Z,99111.50
2023-02-19T18:01:30.381Z,99114.19
2023-02-19T18:03:35.158Z,99122.19
2023-02-19T18:05:40.025Z,99130.91
2023-02-19T18:07:44.898Z,99123.97
2023-02-19T18:09:52.285Z,99116.25
2023-02-19T18:11:57.387Z,99127.47
2023-02-19T18:14:02.194Z,99136.28
2023-02-19T18:16:09.962Z,99133.63
2023-02-19T18:18:14.842Z,99135.31
2023-02-19T18:20:22.150Z,99139.53
2023-02-19T18:22:27.209Z,99143.03
2023-02-19T18:24:31.934Z,99143.16
2023-02-19T18:26:39.306Z,99144.09
2023-02-19T18:28:44.116Z,99147.38
2023-02-19T18:30:49.352Z,99151.66
2023-02-19T18:32:55.403Z,99143.81
2023-02-19T18:35:01.865Z,99139.19
2023-02-19T18:37:06.952Z,99134.84
2023-02-19T18:39:11.823Z,99140.09
2023-02-19T18:41:20.196Z,99130.56
2023-02-19T18:43:28.031Z,99145.44
2023-02-19T18:45:35.419Z,99141.19
2023-02-19T18:47:40.212Z,99155.81
2023-02-19T18:49:48.271Z,99150.59
2023-02-19T18:51:54.501Z,99158.41
2023-02-19T18:54:01.758Z,99154.88
2023-02-19T18:56:09.092Z,99153.28
2023-02-19T18:58:13.923Z,99154.88
2023-02-19T19:00:25.593Z,99136.78
2023-02-19T19:02:42.725Z,99148.09
2023-02-19T19:04:56.210Z,99140.38
2023-02-19T19:07:00.950Z,99147.34
2023-02-19T19:09:06.320Z,99135.03
2023-02-19T19:11:11.319Z,99138.75
2023-02-19T19:13:16.419Z,99150.00
2023-02-19T19:15:24.830Z,99148.31
2023-02-19T19:17:29.735Z,99144.78
2023-02-19T19:19:34.649Z,99155.06
2023-02-19T19:21:39.768Z,99158.56
2023-02-19T19:23:44.772Z,99162.91
2023-02-19T19:25:49.646Z,99162.91
2023-02-19T19:27:58.162Z,99162.03
2023-02-19T19:30:03.030Z,99161.00
2023-02-19T19:32:10.921Z,99159.13
2023-02-19T19:34:16.274Z,99159.19
2023-02-19T19:36:22.258Z,99161.00
2023-02-19T19:38:27.096Z,99167.06
2023-02-19T19:40:32.313Z,99161.00
2023-02-19T19:42:36.956Z,99163.81
2023-02-19T19:44:41.784Z,99168.97
2023-02-19T19:46:47.618Z,99174.06
2023-02-19T19:48:58.197Z,99175.16
2023-02-19T19:51:03.174Z,99175.09
2023-02-19T19:53:08.013Z,99181.16
2023-02-19T19:55:12.907Z,99176.09
2023-02-19T19:57:19.224Z,99183.88
2023-02-19T19:59:24.153Z,99184.91
2023-02-19T20:01:29.048Z,99176.09
2023-02-19T20:03:33.977Z,99184.84
2023-02-19T20:05:41.394Z,99191.72
2023-02-19T20:07:46.418Z,99193.34
2023-02-19T20:09:51.824Z,99195.03
2023-02-19T20:11:56.750Z,99199.44
2023-02-19T20:14:04.232Z,99199.50
2023-02-19T20:16:11.068Z,99190.63
2023-02-19T20:18:16.008Z,99187.25
2023-02-19T20:20:22.755Z,99197.56
2023-02-19T20:22:30.466Z,99194.00
2023-02-19T20:24:38.303Z,99192.22
2023-02-19T20:26:43.349Z,99188.72
2023-02-19T20:28:48.465Z,99196.59
2023-02-19T20:30:56.733Z,99207.00
2023-02-19T20:33:01.556Z,99202.75
2023-02-19T20:35:06.705Z,99213.16
2023-02-19T20:37:12.699Z,99207.00
2023-02-19T20:39:22.210Z,99204.63
2023-02-19T20:41:27.652Z,99208.84
2023-02-19T20:43:37.604Z,99209.88
2023-02-19T20:45:45.957Z,99216.66
2023-02-19T20:47:50.836Z,99210.69
2023-02-19T20:49:55.743Z,99218.72
2023-02-19T20:52:02.844Z,99221.38
2023-02-19T20:54:07.819Z,99223.25
2023-02-19T20:56:15.326Z,99222.28
2023-02-19T20:58:21.088Z,99216.22
2023-02-19T21:00:26.526Z,99217.06
2023-02-19T21:02:31.884Z,99224.09
2023-02-19T21:04:36.990Z,99231.03
2023-02-19T21:06:42.773Z,99230.13
2023-02-19T21:08:47.549Z,99236.22
2023-02-19T21:10:53.696Z,99240.63
2023-02-19T21:13:02.075Z,99231.03
2023-02-19T21:15:07.706Z,99234.41
2023-02-19T21:17:12.592Z,99238.63
2023-02-19T21:19:17.918Z,99238.63
2023-02-19T21:21:28.517Z,99237.75
2023-02-19T21:23:33.592Z,99237.78
2023-02-19T21:25:38.522Z,99239.66
2023-02-19T21:27:43.395Z,99237.91
2023-02-19T21:29:54.609Z,99247.38
2023-02-19T21:32:01.749Z,99247.44
2023-02-19T21:34:07.799Z,99248.34
2023-02-19T21:36:18.671Z,99249.25
2023-02-19T21:38:23.471Z,99249.31
2023-02-19T21:40:30.109Z,99254.56
2023-02-19T21:42:34.942Z,99252.75
2023-02-19T21:44:41.669Z,99249.25
2023-02-19T21:46:50.340Z,99236.38
2023-02-19T21:48:56.604Z,99228.59
2023-02-19T21:51:01.762Z,99229.47
2023-02-19T21:53:06.670Z,99230.28
2023-02-19T21:55:11.709Z,99232.81
2023-02-19T21:57:16.522Z,99233.63
2023-02-19T21:59:21.559Z,99231.88
2023-02-19T22:01:27.971Z,99233.31
2023-02-19T22:03:35.458Z,99231.44
2023-02-19T22:05:40.611Z,99230.72
2023-02-19T22:07:45.622Z,99230.72
2023-02-19T22:09:52.186Z,99237.63
2023-02-19T22:11:57.022Z,99237.53
2023-02-19T22:14:01.912Z,99240.06
2023-02-19T22:16:06.970Z,99240.88
2023-02-19T22:18:11.855Z,99246.91
2023-02-19T22:20:20.005Z,99256.38
2023-02-19T22:22:26.835Z,99260.66
2023-02-19T22:24:31.754Z,99250.09
2023-02-19T22:26:38.442Z,99257.53
2023-02-19T22:28:43.248Z,99252.22
2023-02-19T22:30:48.068Z,99260.28
2023-02-19T22:32:52.960Z,99269.91
2023-02-19T22:34:58.287Z,99269.91
2023-02-19T22:37:06.799Z,99271.78
2023-02-19T22:39:18.743Z,99276.13
2023-02-19T22:41:24.331Z,99273.56
2023-02-19T22:43:29.092Z,99265.91
2023-02-19T22:45:33.950Z,99268.69
2023-02-19T22:47:40.066Z,99269.59
2023-02-19T22:49:45.555Z,99268.69
2023-02-19T22:51:52.480Z,99260.91
2023-02-19T22:54:01.644Z,99262.72
2023-02-19T22:56:06.672Z,99268.81
2023-02-19T22:58:11.577Z,99264.59
2023-02-19T23:00:21.090Z,99261.97
2023-02-19T23:02:25.947Z,99265.59
2023-02-19T23:04:31.417Z,99268.94
2023-02-19T23:06:37.883Z,99275.88
2023-02-19T23:08:43.582Z,99270.69
2023-02-19T23:10:51.157Z,99274.97
2023-02-19T23:12:55.937Z,99280.09
2023-02-19T23:15:00.820Z,99274.91
2023-02-19T23:17:05.689Z,99273.97
2023-02-19T23:19:12.673Z,99266.94
2023-02-19T23:21:18.490Z,99265.97
2023-02-19T23:23:23.250Z,99254.88
2023-02-19T23:25:28.164Z,99258.38
2023-02-19T23:27:35.499Z,99258.38
2023-02-19T23:29:40.331Z,99253.97
2023-02-19T23:31:45.288Z,99261.81
2023-02-19T23:33:50.230Z,99249.06
2023-02-19T23:35:55.063Z,99243.88
2023-02-19T23:38:00.929Z,99244.63
2023-02-19T23:40:05.898Z,99246.38
2023-02-19T23:42:10.808Z,99245.63
2023-02-19T23:44:18.220Z,99235.19
2023-02-19T23:46:23.068Z,99242.84
2023-02-19T23:48:27.948Z,99231.63
2023-02-19T23:50:32.866Z,99238.63
2023-02-19T23:52:37.625Z,99245.75
2023-02-19T23:54:42.535Z,99254.31
2023-02-19T23:56:47.414Z,99250.06
2023-02-19T23:58:52.257Z,99244.13
